L’HERAULTAISE Cyclosportive La Roger Pingeon - 03/04/2011

Sportive de 93 Km


Pl Do. Nom - Surname Prénom - Name S-Cat /cat Club - Team TEMPS - Time Km/h /sx TEMPS REF
1 1529 ZAMORA BENJAMIN MB 1 MONTAGNAC AC 02:38:40 35,17 1 03:03:39
2 1276 LAGASSE GAUILLAUME MA 1 LES CRAC'S TEAM ANDOUARD 02:38:40 35,16 2 03:03:40
3 1485 TAISSE FREDERIC MB 2 MONTAGNAC AC 02:38:41 35,16 3 03:03:40
4 1335 PIVAIN CLAUDE MB 3 ASPH MONTPELLIER 02:39:25 35,00 4 03:04:24
5 1627 PINOL DANNY MA 2 MOUSQUETAIRES PRADEENS 02:39:25 35,00 5 03:04:25
6 1527 ANGLIVIEL NICOLAS MC 1 MONTAGNAC AC 02:39:26 35,00 6 03:04:25
7 1498 DUBRIANO ROMAIN MA 3 AS QUILLAN 02:39:26 35,00 7 03:04:25
8 1659 DELIEUZE GRÉGOIRE MB 4 ROUE LIBRE GIGNACOISE 02:39:27 34,99 8 03:04:26
9 1420 RIGAL SACHA MA 4 GUIDON CYCLOSPORTIF PYRÉNÉEN 02:39:27 34,99 9 03:04:26
10 1345 DONNADIEU JEAN YVES MB 5 MONTAGNAC AC 02:39:27 34,99 10 03:04:26
11 1547 ARTIERES CÉDRIC MB 6 VSSA 02:39:27 34,99 11 03:04:27
12 1641 GERBAL THOMAS MA 5 VC MENDE LOZ 02:39:28 34,99 12 03:04:27
13 1506 CANTONI VINCENT MB 7 EVS 34 02:39:28 34,99 13 03:04:27
14 1455 GERBAL BRUNO MC 2 VC MAUGUIO 02:39:28 34,99 14 03:04:27
15 1591 BRUN ERIC MB 8 VCV VAILHAUQUES 02:39:28 34,99 15 03:04:28
16 1550 ROUX DIDIER MC 3   02:39:29 34,99 16 03:04:28
17 1426 SANTANAC MICHEL MC 4 CC SIGEAN 02:39:29 34,99 17 03:04:28
18 1575 CARAMEL MATHIEU ME 1 UC SAINT CHELY D'APCHER 02:39:29 34,99 18 03:04:28
19 1262 COQUART MAXIME MA 6 MONTAGNAC AC 02:39:29 34,99 19 03:04:28
20 1541 CHAPEL NICOLAS MB 9   02:39:29 34,98 20 03:04:28
21 1531 LEFEBVRE RICHARD MB 10 LUNEL BIKE 02:39:29 34,98 21 03:04:29
22 1467 LIEGE FLORENT ME 2 VC MAUGUIO 02:39:30 34,98 22 03:04:29
23 1530 ROUX PHILIPPE MC 5 TEAM MOUTAIN BIKE SAINT AUNES 02:39:30 34,98 23 03:04:29
24 1494 LORENZATO NICOLAS MB 11   02:39:30 34,98 24 03:04:29
25 1502 BIALOWAS BRICE MA 7 MOUSQUETAIRES PRAD 02:39:30 34,98 25 03:04:29
26 1243 BOYER THIERRY MC 6 VC MAUGUIO 02:39:31 34,98 26 03:04:30
27 1466 ROSADO JEAN CLAUDE MC 7   02:39:31 34,98 27 03:04:30
28 1311 BEURVILLE WILLY MB 12 VCLL PEZENAS 02:39:31 34,98 28 03:04:30
29 1508 BONNEFOI ARMEL MB 13 MONTAGNAC AC 02:39:32 34,98 29 03:04:31
30 1303 LAVAILL XAVIER MB 14 MONTAGNAC AC 02:39:32 34,98 30 03:04:31
31 1574 CAMARENA JOSÉ MB 15 MONTAGNAC AC 02:39:32 34,97 31 03:04:31
32 1369 CAMPOS XAVIER MC 8 ASC CARCASSONNE 02:39:33 34,97 32 03:04:32
33 1732 PEDULLA BRUNO MC 9 LA FLECHE FLORACOISE 02:39:33 34,97 33 03:04:32
34 1602 JEANJEAN GILLES MC 10 MONTAGNAC AC 02:39:35 34,97 34 03:04:34
35 1504 BLATTES VIRGILE MA 8 AUTRE 02:40:26 34,78 35 03:05:25
36 1486 MICHEL DAMIEN ME 3 LA FLECHE DU MIDI 02:40:32 34,76 36 03:05:31
37 1201 PIERSON LUC MA 9 VO2 TRIATHLON 02:41:49 34,48 37 03:06:48
38 1564 REVERDY GEORGES MD 1 MONTAGNAC AC 02:43:18 34,17 38 03:08:17
39 1505 BRUEL MAXIME MA 10 AUTRE 02:43:49 34,06 39 03:08:48
40 1256 GOURON MICHEL MC 11 LA FLECHE DU MIDI 02:43:52 34,05 40 03:08:51
41 1544 RAMADIER MICHAEL MA 11 TEYRAN BIKE 34 02:43:52 34,05 41 03:08:51
42 1711 LE GOFF DAVID MC 12 ROUE LIBRE GIGNACOISE 02:43:53 34,05 42 03:08:52
43 1539 VALLEJO CEDRIC MB 16 VO2 TRIATHLON 02:43:53 34,05 43 03:08:52
44 1414 AUDRIN CHRISTIAN MC 13 ROUE LIBRE GIGNACOISE 02:43:53 34,05 44 03:08:52
45 1372 BONNIN FREDERIC MC 14   02:43:54 34,04 45 03:08:53
46 1273 COURRIEU JEAN-MICHEL MC 15   02:43:54 34,04 46 03:08:53
47 1234 ARDISSSON DAVID MC 16 NEUTRE 02:43:55 34,04 47 03:08:54
48 1640 LLOVERAS CLAUDE MC 17 MONTPELLIER AGGLO TRI 02:43:59 34,03 48 03:08:58
49 1339 BROS MICKAEL MA 12 VC MAUGUIO 02:44:37 33,90 49 03:09:36
50 1336 ANDREU DAVID MB 17 ROUE LIBRE GIGNACOISE 02:45:36 33,69 50 03:10:35
51 1287 LAUSSEL FABRICE MB 18 VCLL PEZENAS 02:45:38 33,69 51 03:10:37
52 1442 GODELLE FRANCK MC 18 MONTAGNAC AC 02:45:38 33,69 52 03:10:37
53 1472 LE COQ ARNAUD MB 19 MONTAGNAC AC 02:46:09 33,58 53 03:11:08
54 1377 AVANCES CHRISTOPHE MC 19   02:46:10 33,58 54 03:11:09
55 1406 FROLI ALAIN MD 2 SUD VELO EN JETEZ PLUS 02:46:11 33,58 55 03:11:10
56 1682 GAUTIER-ROIG FREDERIC MD 3 VELO PLUS 02:46:12 33,57 56 03:11:11
57 1626 MARCHAND CHRISTOPHE MC 20 MONTAGNAC AC 02:46:23 33,54 57 03:11:22
58 1275 FERRY JEAN FRANÇOIS MC 21 AVC AIX 02:46:26 33,52 58 03:11:25
59 1211 BESSET PATRICK MB 20 VO2 TRIATHLON 02:47:47 33,26 59 03:12:46
60 1413 FABRE OLIVIER MC 22 MONTAGNAC AC 02:48:02 33,21 60 03:13:01
61 1537 ROBERT LILIAN MC 23 CYCLO CLUB SIGEAN 02:48:04 33,20 61 03:13:03
62 1355 CARPENA RICHARD MC 24 BEZIERS MEDIT 02:48:04 33,20 62 03:13:03
63 1330 ANDRE CHRISTIAN MC 25 VCLL PEZENAS 02:48:04 33,20 63 03:13:03
64 1495 CARRERE MICHEL MC 26 LA FLECHE DU MIDI 02:48:04 33,20 64 03:13:04
65 1360 FLORENTIN FRANÇOIS MC 27 ESPRIT VELO SPORT 34 02:48:04 33,20 65 03:13:04
66 1302 BLANC YVON MB 21 ALBI VELO SPORT 02:48:05 33,20 66 03:13:04
67 1247 ROQUES YVES MC 28 VCLL PEZENAS 02:48:06 33,19 67 03:13:05
68 1553 DUMONT FRANCK MB 22 LE ROC DE LA LÈGUE 02:48:06 33,19 68 03:13:05
69 1212 GERONIMO ANDRÉ MD 4 VTT CLUB DES HAUTS CANTONS 02:48:06 33,19 69 03:13:05
70 1371 BONNIN YVES MD 5   02:48:07 33,19 70 03:13:06
71 1281 OLLER PIERRE MB 23 VCLL PEZENAS 02:48:07 33,19 71 03:13:06
72 1719 BANON JERAN-LOUIS MC 29 MONTAGNAC AC 02:48:07 33,19 72 03:13:06
73 1581 DUMAS DAVID MB 24 LUNEL VELO PASSION 02:48:07 33,19 73 03:13:06
74 1314 DELORME YVES-MARIE MD 6 VC VEDASIEN 02:48:07 33,19 74 03:13:06
75 1737 GIL NICOLAS MV1 1 VC VEDASIEN 02:48:07 33,19 75 03:13:06
76 1359 CHAPEL FABIEN MC 30 SAINT DREZERY 02:48:08 33,19 76 03:13:07
77 1612 FABRE ROMAIN ME 4 VS NARBONNAIS 02:48:08 33,19 77 03:13:07
78 1503 LEGOUPIL FRANCOIS MB 25 VC MENDE LOZ 02:48:09 33,18 78 03:13:08
79 1469 NEROZZI LAURENT MC 31 VELO SPORT SAINT AFFRICAIN 02:48:09 33,18 79 03:13:08
80 1253 LEJEUNE ELOÏC MB 26 ASPH MONTPELLIER 02:48:11 33,18 80 03:13:10
81 1461 RAULIN HERVÉ MD 7 CYCLO LAURAGAIS CASTELNAUDARY 02:48:11 33,18 81 03:13:10
82 1423 COURSIÈRE STÉPHANE MC 32 MONTAGNAC AC 02:48:11 33,18 82 03:13:10
83 1651 PORTER DONALD MD 8 MONTPELLIER LANGUEDOC CYCLISME 02:48:12 33,17 83 03:13:11
84 1327 NESPOULOUS NICOLAS MB 27 UC REQUISTA 02:48:13 33,17 84 03:13:12
85 1411 BENOIT PHILIPPE MC 33 VC SALINDRES 02:48:14 33,17 85 03:13:13
86 1671 AZAM JEROME MB 28 VELO SPORT SAINT AFFRICAIN 02:48:29 33,12 86 03:13:28
87 1648 CAUJOLLE MARTIN MB 29   02:49:35 32,90 87 03:14:35
88 1601 VIDAL SERGE MB 30 VC MAUGUIO 02:49:45 32,87 88 03:14:44
89 1430 FAVIER MARTIAL MC 34 AVC AIX 02:50:21 32,75 89 03:15:20
90 1301 RUIZ RENÉ ME 5 MONTAGNAC AC 02:50:21 32,75 90 03:15:21
91 1367 GARCIA LAURENT MB 31 MONTAGNAC AC 02:50:28 32,73 91 03:15:27
92 1625 WALLON BERNARD MC 35   02:50:29 32,73 92 03:15:28
93 1382 NUBOIS JOEL MD 9 SAPEURS-POMPIERS SETE 02:50:29 32,73 93 03:15:28
94 1439 CHAUZU LUDOVIC MB 32   02:50:30 32,72 94 03:15:30
95 1229 BARBAZA CHRISTIAN MB 33   02:50:31 32,72 95 03:15:30
96 1285 CAUSSEL LILIAN MB 34 LA FLÈCHE DU MIDI 02:50:32 32,72 96 03:15:31
97 1526 ROUGER GIANNI MC 36 UC COGNIN 02:50:32 32,72 97 03:15:31
98 1546 CAIZERGUES MATHIEU MA 13 MOUSQUETAIRES PRAD 02:50:32 32,72 98 03:15:32
99 1205 SEGURA BRUNO MC 37 VC MAUGUIO 02:50:33 32,72 99 03:15:32
100 1488 BERGEROT SERGE ME 6 VC MAUGUIO 02:50:34 32,71 100 03:15:33
101 1663 ENJALRIC YVES MC 38   02:50:35 32,71 101 03:15:34
102 1665 VETTOR THIERRY MC 39 CC SAINT DREZERY 02:50:43 32,68 102 03:15:42
103 1433 DE GRAVE JEAN MD 10 VCLL PEZENAS 02:52:01 32,44 103 03:17:01
104 1464 BUONO DAVID MC 40 MONTAGNAC AC 02:52:10 32,41 104 03:17:09
105 1649 MAURIN PIERRE MD 11 VC MENDE LOZERE 02:52:10 32,41 105 03:17:09
106 1567 FOURES PATRICE MC 41 VELO 2000 ONET 02:52:12 32,40 106 03:17:11
107 1513 BONNEMAYRE BASTIEN MA 14 ELAN CYCLISTE BALARUCOIS 02:52:26 32,36 107 03:17:25
108 1465 SEGURA ROBIN MA 15 VC MAUGUIO 02:53:33 32,15 108 03:18:33
109 1517 BONNETAIN ARNAUD MB 35 ELAN CYCLISTE BALARUCOIS 02:53:52 32,09 109 03:18:51
110 1290 GADENNE ALAIN ME 7 CORNEILLA CYCLO SPORT 02:54:11 32,03 110 03:19:10
111 1580 BASANJON HERVE MC 42 CAVEIRAC VC 02:54:11 32,03 111 03:19:10
112 1419 MARTIN CEDRIC MB 36 ASPH MONTPELLIER 02:54:11 32,03 112 03:19:10
113 1657 DUHAU THIERRY MC 43 TEAM MOUNTAIN BIKE SAINT AUNES 02:54:11 32,03 113 03:19:10
114 1471 VINET NICOLAS MA 16 CORNEILLA CYCLO SPORT 02:54:11 32,03 114 03:19:10
115 1427 KOVACS GEORGES MD 12 ASPTT BRIVE 02:54:11 32,03 115 03:19:11
116 1354 CHAUMARAT LUCIEN MD 13 MONTAGNAC AC 02:54:12 32,03 116 03:19:11
117 1463 FONTERS ERIC MC 44 MONTAGNAC AC 02:54:12 32,03 117 03:19:11
118 1216 ROSSIGNOL MARC MC 45   02:54:12 32,03 118 03:19:11
119 1515 CUBEDO PIERRE ME 8 ELAN CYCLISTE BALARUCOIS 02:54:13 32,03 119 03:19:12
120 1249 AUTRIC FRÉDÉRIC MC 46   02:54:13 32,03 120 03:19:12
121 1333 SORIANO DAMIEN MA 17   02:54:13 32,03 121 03:19:12
122 1582 RAYNAUD YVES MD 14 TEYRAN BIKE 34 02:54:13 32,03 122 03:19:12
123 1587 LEBRUN ALAIN MC 47 VCC BITERROIS 02:54:13 32,03 123 03:19:12
124 1425 DURAND GEOFFREY MB 37 ESPRIT VELO SPORT 34 02:54:14 32,03 124 03:19:13
125 1740 JIMENEZ THIERRY MD 15 NL 02:54:14 32,02 125 03:19:13
126 1637 TABUTEAU STEPHANE MC 48 MONTAGNAC AC 02:54:14 32,02 126 03:19:13
127 1712 GARRIGOU DANIEL ME 9 UNION CYCLISTE SARLADAISE 02:54:15 32,02 127 03:19:14
128 1674 BEAU FREDERIC MC 49   02:54:15 32,02 128 03:19:14
129 1337 VEZINHET JOËL MD 16 ROUE LIBRE GIGNACOISE 02:54:15 32,02 129 03:19:14
130 1604 DANIS CHRISTOPHE MD 17   02:54:16 32,02 130 03:19:15
131 1482 GONZALES CLAUDE MD 18 FLECHE DU MIDI 02:54:17 32,01 131 03:19:16
132 1443 BOISSEAU-CULOT XAVIER MB 38 TRIATHLETE CLUB NARBONNAIS 02:54:18 32,01 132 03:19:17
133 1722 MIRALLES RICHARD MC 50 CYCLO CLUB BÉDARIEUX 02:54:18 32,01 133 03:19:17
134 1522 ANTONI NADEGE FW1 1 MONTAGNAC AC 02:54:18 32,01 1 03:19:17
135 1313 BERNARD THOMAS MA 18 LE ROC DE LA LEGUE 02:54:21 32,00 134 03:19:21
136 1307 CABALLE MICHEL MC 51 VCLL PEZENAS 02:54:25 31,99 135 03:19:24
137 1658 LUCY EMERIC MA 19 LUNEL VELO PASSION 02:54:28 31,98 136 03:19:27
138 1410 TORQUEBIAU PHILIPPE MC 52 SUD VELO EN JETEZ PLUS 02:54:33 31,97 137 03:19:32
139 1363 RIEU VALENTIN MA 20 VC VEDASIEN 02:54:34 31,96 138 03:19:33
140 1204 VAISSIÈRE SÉBASTIEN MA 21 CC PYRÉNÉEN 02:54:38 31,95 139 03:19:37
141 1422 CASTELLARNAU FLORENT MA 22 BEZIERS MEDIT 02:55:15 31,84 140 03:20:14
142 1252 ROCH BRUNO MC 53 AC CLAPIERS 02:55:48 31,74 141 03:20:47
143 1528 ANTUNES DOMINIQUE MD 19 BEZIERS MEDITERANÉE CYCLISME 02:56:42 31,58 142 03:21:41
144 1650 LOUBET PATRICK MC 54 MONTAGNAC AC 02:56:51 31,55 143 03:21:50
145 1566 NAVAS CEDRIC MC 55 MONTAGNAC AC 02:59:07 31,15 144 03:24:06
146 1213 GRANIER FRANK MB 39   02:59:08 31,15 145 03:24:07
147 1468 LIEGE PATRICK MC 56 VC MAUGUIO 02:59:10 31,14 146 03:24:09
148 1675 CHABBERT HENRI-NOEL MD 20   02:59:10 31,14 147 03:24:09
149 1507 IRLE JEAN-CLAUDE ME 10   02:59:11 31,14 148 03:24:10
150 1232 MONCHALIN LAURENT MC 57   02:59:11 31,14 149 03:24:10
151 1393 HERCOT MICHEL MD 21 ASS FLECHE DU MIDI 02:59:11 31,14 150 03:24:10
152 1588 FOURNIER JEAN-FRANÇOIS MD 22 MONTAGNAC AC 02:59:12 31,14 151 03:24:11
153 1492 CROSNIER DE BELLAISTRE GILLES MC 58 CYCLO LAURAGAIS CASTELNAUDARY 02:59:12 31,14 152 03:24:12
154 1476 ALLIES ROMAIN MA 23 VCLL PEZENAS 02:59:13 31,14 153 03:24:12
155 1397 CHAPEL JULIEN MB 40 SUD VELO EN JETEZ PLUS 02:59:13 31,14 154 03:24:12
156 1477 AZUM LIONEL MB 41 UC MONTMEYRANAISE 02:59:15 31,13 155 03:24:14
157 1341 GERAUD ALAIN MD 23 LA FLECHE DU MIDI 02:59:20 31,11 156 03:24:19
158 1532 ROBERTS SIMON MD 24   02:59:23 31,11 157 03:24:22
159 1435 MARTINEZ THIERRRY MC 59   02:59:34 31,07 158 03:24:34
160 1570 PUYDEBOIS ALEXANDRE ME 11 VCC BITERROIS 03:01:00 30,83 159 03:25:59
161 1304 BEZIAT CHRISTIAN MD 25 BEZIERS MEDITERANÉE CYCLISME 03:01:05 30,81 160 03:26:04
162 1241 TOUREN CHRISTOPHE MB 42 CLUB NEUTRE LR 03:01:06 30,81 161 03:26:05
163 1259 CAUSSEL LOUIS ME 12 FLECHE DU MIDI 03:01:06 30,81 162 03:26:05
164 1331 PICH JEAN LUC MC 60 VCC BITERROIS 03:01:06 30,81 163 03:26:05
165 1458 VALAT JEAN CHARLES MC 61 LA FLECHE DU MIDI 03:01:07 30,81 164 03:26:06
166 1460 GUTIERREZ JEAN MANUEL MC 62 CYCLO COURNONS D AUVERGNE 03:01:07 30,81 165 03:26:06
167 1392 BOUZAT VIDIAN MB 43   03:01:07 30,81 166 03:26:06
168 1457 PRIVAT ERIC MB 44 VC SALINDRES 03:01:08 30,81 167 03:26:07
169 1603 CHAPEL ALAIN ME 13   03:01:08 30,80 168 03:26:07
170 1563 REQUENA DANIEL ME 14 MONTAGNAC AC 03:01:08 30,80 169 03:26:07
171 1222 COQUART PIERRE MC 63   03:01:08 30,80 170 03:26:08
172 1633 RICHARTE FRANCIS MC 64 TEYRAN BIKE 34 03:01:09 30,80 171 03:26:08
173 1579 PEREZ DENIS MB 45 GUIDON SPORTIF SETOIS 03:01:09 30,80 172 03:26:08
174 1286 MASSART NICOLAS MC 65 ROUE LIBRE GIGNACOISE 03:01:09 30,80 173 03:26:08
175 1328 PRADALIER FRANCIS MD 26 VELO CLUB LOT ET TRUYERE 03:01:10 30,80 174 03:26:09
176 1654 GASCON AUDREY FW1 2 CC LE BOULOU 03:01:11 30,80 2 03:26:10
177 1405 FAYET FRANCIS MD 27 SUD VELO EN JETEZ PLUS 03:01:11 30,80 175 03:26:10
178 1394 BONNET CHRISTOPHE MB 46 SUD VELO EN JETEZ PLUS 03:01:12 30,79 176 03:26:11
179 1289 KARSZTUN DAVID MC 66 VTT CLUB MAZAMET 03:01:12 30,79 177 03:26:11
180 1653 EUSEBIO MANUEL MC 67 TEAM VELO SERVICE 03:01:14 30,79 178 03:26:13
181 1366 BARTHE ARNAUD MA 24   03:01:14 30,79 179 03:26:14
182 1223 DEJEAN CHRISTOPHE MC 68 VC MAUGUIO 03:01:15 30,78 180 03:26:14
183 1293 CALMELS FRÉDÉRIC MC 69   03:01:18 30,78 181 03:26:17
184 1595 PARRATTE FRANCK MB 47 NIMES TRIATHLON 03:01:24 30,76 182 03:26:24
185 1500 BOURRET THIERRY MD 28 TEYRAN BIKE 34 03:01:32 30,74 183 03:26:31
186 1292 CHARRE REGIS MC 70   03:02:05 30,64 184 03:27:04
187 1412 LORENZIN BRUNO MC 71 CC SIGEAN 03:02:42 30,54 185 03:27:41
188 1611 GRENIER THIERRY MD 29 AC CLAPIERS 03:02:43 30,54 186 03:27:42
189 1638 MIRALLES ALAIN MC 72 CC BEDARIEUX 03:02:43 30,54 187 03:27:42
190 1280 CAMBON ROLAND MC 73   03:02:44 30,53 188 03:27:43
191 1540 COAT BERNARD ME 15   03:02:45 30,53 189 03:27:44
192 1219 CHEVÉ PATRICK MD 30   03:02:45 30,53 190 03:27:44
193 1351 GRAVEJAT BRUNO MD 31 VCV VAILHAUQUES 03:02:46 30,53 191 03:27:45
194 1561 BONAFOS ROMAIN MB 48   03:02:46 30,53 192 03:27:45
195 1401 JANIN CHRISTOPHE MC 74 SUD VELO EN JETEZ PLUS 03:02:47 30,53 193 03:27:46
196 1524 REILHAN FLORIAN MB 49 VTT AIGOUAL PAYS VIGANAIS 03:02:47 30,53 194 03:27:46
197 1268 METGE DAVID MB 50 VTT AIGOUAL PAYS VIGANAIS 03:02:48 30,53 195 03:27:47
198 1555 BRESLAVEC ROMAIN MB 51   03:02:48 30,52 196 03:27:47
199 1569 LUST STEPHANE MC 75   03:02:51 30,51 197 03:27:50
200 1296 CALVAYRAC DIDIER MC 76 MONTPELLIER AGGLO TRI 03:02:53 30,51 198 03:27:52
201 1344 PASCAL REGIS MC 77 MENDE RUN AND BIKE 03:02:55 30,50 199 03:27:54
202 1559 ETIENNE DAVID MC 78 VCLL PEZENAS 03:03:25 30,42 200 03:28:24
203 1220 MORI JEAN CHRISTOPHE MC 79 TAM MONTPELLIER 03:04:06 30,31 201 03:29:05
204 1618 GUIRAUDOU FRÉDÉRIC MC 80   03:04:12 30,29 202 03:29:11
205 1609 SCHRAPFF DENNIS MC 81 TEYRAN BIKE 34 03:04:44 30,21 203 03:29:43
206 1265 HALLEY FRANCIS MD 32 VCV VAILHAUQUES 03:05:29 30,08 204 03:30:28
207 1230 BUSSON CHRISTIAN MC 82 CJL ARDENTES 03:05:29 30,08 205 03:30:28
208 1248 TISON STEPHANE MC 83   03:05:29 30,08 206 03:30:28
209 1519 LECAM SYLVAIN MC 84   03:05:29 30,08 207 03:30:28
210 1656 PROVOST BERNARD ME 16 TROCHE CYCLO NATURE 03:05:29 30,08 208 03:30:29
211 1370 HOLLARD PHILIPPE MD 33 TEYRAN BIKE 34 03:05:30 30,08 209 03:30:29
212 1606 SOLIGNAC THIERRY MC 85 MONTAGNAC AC 03:05:30 30,08 210 03:30:29
213 1677 COPPOLA GERALD MB 52 LA FLECHE DU MIDI 03:05:30 30,08 211 03:30:29
214 1390 DE LA TORRE THIERRY MB 53   03:05:31 30,08 212 03:30:30
215 1214 ALIAGA JEAN-MARIE MD 34 ASPH MONTPELLIER 03:05:31 30,08 213 03:30:31
216 1655 HERNANDEZ CLEMENT MA 25 VCC BITERROIS 03:05:33 30,07 214 03:30:32
217 1576 AMANS CHRISTOPHE MC 86 AC CLAPIERS 03:05:33 30,07 215 03:30:32
218 1316 VAREA JEAN PIERRE MD 35 VCLL PEZENAS 03:05:33 30,07 216 03:30:32
219 1352 BOURREL JUSTIN MA 26   03:05:34 30,07 217 03:30:33
220 1594 BALTZ JACQUES MD 36 ELAN BALARUCOIS 03:05:34 30,07 218 03:30:33
221 1725 LEMONON BERNARD ME 17 CR4C ROANNE 03:05:35 30,07 219 03:30:34
222 1727 PORATAL JOSE MD 37   03:05:37 30,06 220 03:30:36
223 1270 TEYSSIER FREDERIC MC 87 VTT ST MATHIEU DE TR 03:06:19 29,95 221 03:31:18
224 1646 OLLIVIER VINCENT MB 54 OCP UBAYE 03:06:49 29,87 222 03:31:48
225 1266 YAGER JÉRÔME MC 88 CYCLO LAURAGAIS 03:08:01 29,68 223 03:33:00
226 1499 CORNUT STÉPHANE MB 55   03:08:02 29,67 224 03:33:02
227 1607 CHABERT MICHEL ME 18 SAINT GÉLY DU FESC 03:08:05 29,67 225 03:33:04
228 1521 FISTON PHILIBERT MC 89 AC CLAPIERS 03:08:07 29,66 226 03:33:06
229 1605 CORMIER PATRICK MC 90   03:08:08 29,66 227 03:33:07
230 1624 DANIS PASCAL MD 38   03:08:09 29,66 228 03:33:08
231 1334 SORIANO RENÉ MD 39   03:08:10 29,65 229 03:33:09
232 1373 SOLER PHILIPPE MC 91 APC 12 03:08:15 29,64 230 03:33:15
233 1326 BERNAT ERIC MC 92 VTT CLUB MAZAMET 03:08:18 29,63 231 03:33:17
234 1578 DERUAZ STÉPHANE MC 93   03:08:18 29,63 232 03:33:17
235 1299 GUIBERT SYLVAIN MC 94   03:08:20 29,63 233 03:33:19
236 1592 JANNIN JEAN LOUIS ME 19 UNION SPORTIVE CRESTOISE 03:08:22 29,62 234 03:33:21
237 1724 CATEL CHRISTIAN ME 20 VC ANNEMASSE 03:08:22 29,62 235 03:33:21
238 1632 DE SAN PEDRO GEORGES ME 21 MONTAGNAC AC 03:08:23 29,62 236 03:33:22
239 1202 ANIEL BENJAMIN MA 27   03:08:25 29,61 237 03:33:24
240 1514 FOUCHET JEAN CLAUDE MC 95 ELAN CYCLISTE BALARUCOIS 03:08:25 29,61 238 03:33:24
241 1349 MILLAN LAURENCE FW2 1 CORNEILLA CYCLO SPORT 03:08:25 29,61 3 03:33:24
242 1300 VINET STÉPHANE MC 96 CORNEILLA CYCLO SPORT 03:08:26 29,61 239 03:33:25
243 1376 COMBES JEAN LOUIS ME 22 VCLL PEZENAS 03:08:26 29,61 240 03:33:25
244 1269 VENTURI CHRISTIAN MD 40   03:08:39 29,58 241 03:33:38
245 1207 DENIORT JACQUES MD 41   03:08:45 29,56 242 03:33:44
246 1475 PARRA JEAN CHARLES ME 23 MONTAGNAC AC 03:09:06 29,51 243 03:34:06
247 1310 PROVENSOL ALAIN ME 24 AS FORMICA 03:09:12 29,49 244 03:34:11
248 1708 RAYNAL PHILIPPE MC 97   03:09:14 29,49 245 03:34:13
249 1589 DAVAL CHARLES MB 56   03:09:45 29,41 246 03:34:44
250 1358 FERMIN HERVE MC 98 MONTAGNAC AC 03:09:48 29,40 247 03:34:47
251 1622 LEMEUNIER JACQUES MB 57 TRI GRANDE MOTTE 03:09:48 29,40 248 03:34:47
252 1353 NOHARET MICHEL MC 99 TEYRAN BIKE 34 03:09:49 29,40 249 03:34:48
253 1710 LOPEZ ROGER MD 42 VCLL PEZENAS 03:09:49 29,40 250 03:34:48
254 1704 BERTUIT CLAUDE MC 100 BIKE AVENTURE 03:09:50 29,39 251 03:34:50
255 1660 SAIX FABIEN MB 58 TRI GRANDE MOTTE 03:09:51 29,39 252 03:34:50
256 1255 GRUWEZ JACQUES ME 25 AC ANDUZE 03:09:51 29,39 253 03:34:51
257 1282 MARIN GABRIEL MC 101 LUNEL VÉLO PASSION 03:09:51 29,39 254 03:34:51
258 1548 MORAND FABRICE MD 43 MONTAGNAC AC 03:09:52 29,39 255 03:34:51
259 1518 RODRIGUEZ FRANCIS MC 102   03:09:52 29,39 256 03:34:51
260 1424 LEGRAND YANNICK MC 103 LUNEL VELO PASSION 03:09:52 29,39 257 03:34:51
261 1662 SPIEWAK JEAN MATHIAS MB 59 TRI GRANDE MOTTE 03:09:53 29,39 258 03:34:52
262 1227 BONNET STEPHANE MC 104   03:09:53 29,39 259 03:34:52
263 1736 GARRIGUES ALEXANDRE MC 146   03:34:52 25,97 260 03:34:52
264 1703 FERRERE LUDOVIC MA 28 TRI GRANDE MOTTE 03:09:53 29,38 261 03:34:52
265 1237 BENAREAU PEDERSEN MALENE FW2 2 CC LE BOULOU 03:09:53 29,38 4 03:34:53
266 1365 SCHOUTHEER BERNARD MC 105 TAILL'AVENTURE 03:09:54 29,38 262 03:34:53
267 1738 PEASTER CHRISTOPHE MC 106 CO CARNON 03:09:54 29,38 263 03:34:53
268 1590 FENOUILLET JEAN LUC MC 107 CLUB NEUTRE LR 03:09:55 29,38 264 03:34:54
269 1490 MASY PHILIPPE ME 26 CYCLO CLUB DE CASTRIES 03:09:55 29,38 265 03:34:54
270 1250 NOGUERA JACQUES MD 44   03:09:56 29,38 266 03:34:55
271 1260 GEORGERENS CEDRIC MB 60   03:09:56 29,38 267 03:34:55
272 1661 AMO THOMAS MA 29 TRI GRANDE MOTTE 03:09:56 29,38 268 03:34:55
273 1459 BRUEL JEAN LOUIS MD 45 VC MENDE LOZERE 03:09:56 29,38 269 03:34:56
274 1429 CARUSO JEAN MARC MC 108   03:09:57 29,38 270 03:34:56
275 1449 TOUNY CHRISTIAN ME 27 ETOILE CYCLISTE CLERMONT FERRAND 03:09:57 29,37 271 03:34:56
276 1679 FABRE THIERRY MD 46   03:09:57 29,37 272 03:34:56
277 1342 MAYAUD DAVID MC 109 TAILL'AVENTURE 03:09:57 29,37 273 03:34:56
278 1347 DARDENNES HENRI ME 28 VC TOUCY 03:10:00 29,37 274 03:34:59
279 1209 LAIRIS JEAN-PHILIPPE MC 110 OCP PROVENCE 03:10:05 29,35 275 03:35:05
280 1621 MAJOULET HUGUES MD 47   03:12:00 29,06 276 03:36:59
281 1254 MARIN BENJAMIN MA 30 LUNEL VÉLO PASSION 03:13:14 28,88 277 03:38:13
282 1340 VITOU ALAIN MD 48 FL 03:13:20 28,86 278 03:38:19
283 1415 MIETTE GHUILHEM MA 31 MOUSQUETAIRES PRADEENS 03:13:20 28,86 279 03:38:20
284 1421 LEGRAND FRANCK MC 111 TEYRAN BIKE 34 03:13:23 28,85 280 03:38:22
285 1585 AFFRE JEROME MB 61   03:13:28 28,84 281 03:38:27
286 1598 GUIRAUD PIERRE MC 112 ASS FLECHE DU LIDI 03:13:47 28,79 282 03:38:46
287 1308 RAZIMBEAU LAURENT MB 62   03:13:53 28,78 283 03:38:52
288 1279 PIROLA HERVÉ MD 49   03:14:31 28,68 284 03:39:30
289 1715 BALANDRAUD PIERRE ME 29 CO CARNON 03:14:32 28,68 285 03:39:31
290 1572 MYSLIWIAK DIDIER MC 113 VCLL PEZENAS 03:14:32 28,68 286 03:39:31
291 1409 MAGNIN DENIS MD 50 SUD VELO EN JETEZ PLUS 03:14:32 28,68 287 03:39:31
292 1438 SEGUY PATRICE MB 63 GAZELEC BEZIERS 03:14:33 28,68 288 03:39:32
293 1511 TEZIER FREDERIC MC 114 ELAN CYCLISTE BALARUCOIS 03:14:33 28,68 289 03:39:32
294 1374 TOLMOS SEBASTIEN MB 64 ASPH MONTPELLIER 03:14:33 28,68 290 03:39:32
295 1444 BOYER ALAIN ME 30 VELO CLUB MAUVEZINOIS 03:14:33 28,68 291 03:39:32
296 1562 BRESSON GILLES MD 51   03:14:34 28,68 292 03:39:33
297 1713 GOUGNOT-PRUDHOMME ROLAND ME 31 CLUB CYCLOTOURISTE DECIZOIS 03:14:34 28,68 293 03:39:33
298 1620 LEMAITRE GERARD MD 52 CO CARNON 03:14:35 28,68 294 03:39:34
299 1445 MAS CHRISTIAN ME 32   03:14:35 28,68 295 03:39:34
300 1479 GIMENEZ JEAN CLAUDE MD 53 MASSALIA CYCLISME 03:14:35 28,67 296 03:39:34
301 1556 VELATI JEROME MB 65 TRI GRANDE MOTTE 03:14:36 28,67 297 03:39:35
302 1386 CLIMENT DOMINIQUE MD 54 CC PYRÉNÉEN 03:14:36 28,67 298 03:39:35
303 1666 LAFARE LAURENT MC 115   03:14:36 28,67 299 03:39:35
304 1729 DUFFOUR CLAUDE MD 55 VELO CLUB DE MAURIAC 03:14:37 28,67 300 03:39:37
305 1543 CAZALS FRANCIS ME 33   03:14:46 28,65 301 03:39:45
306 1277 SCHEMBRI JEROME MA 32   03:15:18 28,57 302 03:40:18
307 1613 FABRE PASCAL MC 116 VS NARBONNAIS 03:16:06 28,45 303 03:41:05
308 1730 JOLLY JEAN-PIERRE ME 34 USP ISSORIENNE 03:16:08 28,45 304 03:41:07
309 1387 BESSE PATRICK MD 56   03:16:28 28,40 305 03:41:27
310 1228 ALIAGA JEAN PAUL ME 35 VCLL PEZENAS 03:16:29 28,40 306 03:41:28
311 1315 SISTERNES RAYMOND ME 36 VCLL PEZENAS 03:16:30 28,40 307 03:41:29
312 1238 RIVIERE YVON ME 37 VC MAUGUIO 03:16:30 28,40 308 03:41:29
313 1700 DUCROS PIERRE MD 57 FLECHE DU MIDI 03:16:31 28,39 309 03:41:30
314 1416 MARTIN DIDIER MD 58 ASS FLECHE DU MIDI 03:16:31 28,39 310 03:41:30
315 1551 GAYRAUD JEAN PIERRE ME 38 TRIATHL 03:16:31 28,39 311 03:41:30
316 1478 VERDUCCI MARC MB 66 VVC ST MATHIEU DE TREVIERS 03:16:32 28,39 312 03:41:31
317 1617 JOST JEAN-PAUL MD 59 TRI RUN FRONTIGNAN 03:16:34 28,39 313 03:41:33
318 1560 VAUDÉ HENRY MC 117   03:16:34 28,39 314 03:41:33
319 1489 CROUZET CHRISTIAN MD 60 CYCLO CLUB DE CASTRIES 03:16:38 28,38 315 03:41:37
320 1356 JULLIAN MAURICE MD 61 VELO CLUB NOVAIS 03:16:48 28,35 316 03:41:47
321 1323 CHABRAT JACQUES ME 39   03:17:52 28,20 317 03:42:51
322 1584 RHANC JEAN-PHILIPPE MB 67 CC BEDARIEUX 03:17:52 28,20 318 03:42:51
323 1240 VALENTI THIERRY MD 62   03:18:32 28,11 319 03:43:31
324 1267 BILLANGE ROLLAND MD 63   03:18:37 28,09 320 03:43:36
325 1635 GLINEL THIERRY MC 118 ELAN BALARUCOIS 03:18:40 28,09 321 03:43:39
326 1375 PEYRAUD JEAN MC 119 VVC ST MATHIEU DE TREVIERS 03:18:42 28,08 322 03:43:41
327 1707 FROMI RAPHAEL ME 40 UNION CYCLISTE PUJOLAISE 03:18:52 28,06 323 03:43:51
328 1702 REILHAN OLIVIER MB 68   03:18:54 28,05 324 03:43:53
329 1203 ANIEL JEAN-MARC MD 64   03:18:55 28,05 325 03:43:54
330 1568 PUYDEBOIS MATHIAS MC 120   03:19:39 27,95 326 03:44:38
331 1642 JOUVE GÉRARD ME 41   03:19:39 27,95 327 03:44:38
332 1381 VAN WELDEN OLIVIER MC 121 CAVEIRAC VC 03:19:40 27,95 328 03:44:39
333 1706 BORDIER GERARD ME 42 UNION CYCLISTE CAMPAN VALLÉE 03:19:41 27,94 329 03:44:40
334 1317 MICHEL CHRISTIAN ME 43 VCLL PEZENAS 03:19:41 27,94 330 03:44:40
335 1683 GHALI FABRICE MC 122 VCLL PEZENAS 03:19:49 27,92 331 03:44:48
336 1484 ARTIERES EMMANUEL MC 123 FLECHE DU MIDI 03:20:05 27,89 332 03:45:04
337 1383 BAGATIN GILLES MD 65 ASPTT GAILLAC 03:20:56 27,77 333 03:45:55
338 1278 POTHIER MATTHIEU MA 33   03:21:41 27,67 334 03:46:40
339 1391 MENEGHETTI PASCAL MC 124   03:22:07 27,61 335 03:47:06
340 1402 HUC JEROME MB 69 SUD VELO EN JETEZ PLUS 03:22:08 27,60 336 03:47:07
341 1718 COUCHARIERE ALBERT ME 44 VELO CLUB THIEROIS 03:22:17 27,58 337 03:47:16
342 1350 LEMOINE PHILIPPE MD 66 VVC ST MATHIEU DE TREVIERS 03:22:18 27,58 338 03:47:17
343 1535 ROUX DIDIER MD 67   03:22:22 27,57 339 03:47:21
344 1614 POMELLE CYRILLE MB 70 BIKE BEL AIR CLUB 03:22:38 27,54 340 03:47:37
345 1343 FERRANDO JEAN MARIE MC 125   03:22:38 27,54 341 03:47:37
346 1231 DESTREM PATRICK MD 68 ARIEGEOISE CYCLO CLUB 03:22:39 27,53 342 03:47:38
347 1577 TALY PIERER ME 45 VC LA POMME 03:22:39 27,53 343 03:47:38
348 1636 QUINTANA JEAN ME 46 CC SIGEAN 03:22:39 27,53 344 03:47:38
349 1432 GUIGOU FABIEN MC 126   03:22:40 27,53 345 03:47:39
350 1538 VALLEJO LAETITIA FW1 3 VO2 TRIATHLON 03:22:41 27,53 5 03:47:40
351 1217 GUIGOU FABRICE MC 127 VCV VAILHAUQUES 03:22:41 27,53 346 03:47:40
352 1741 LOPEZ CYPRIEN MD 69 NL 03:23:18 27,45 347 03:48:17
353 1357 AUVERGNE FRANCOIS MB 71 VTT ST MATHIEU DE TR 03:23:26 27,43 348 03:48:25
354 1284 NICOLAS FABRICE MD 70   03:23:26 27,43 349 03:48:25
355 1525 ARJAILLES FABIEN MB 72 VC MONT AIGOUAL PAYS VIGANAIS 03:23:26 27,43 350 03:48:25
356 1283 NICOLAS SIMON MA 34 LUNEL VÉLO PASSION 03:23:27 27,43 351 03:48:26
357 1368 BLANC PATRICE MC 128   03:23:30 27,42 352 03:48:29
358 1446 COUIC BERNARD ME 47 VELO SPORT SAINT AFFRICAIN 03:24:37 27,27 353 03:49:36
359 1599 THIEULE BERNARD BERNARD ME 48 TEYRAN BIKE 34 03:24:38 27,27 354 03:49:37
360 1362 LEROUX PAUL MD 71 ROUE LIBRE GIGNACOISE 03:24:38 27,27 355 03:49:37
361 1726 BASSET THIERRY MC 129 ELAN CYCLISTE BALARUCOIS 03:24:40 27,26 356 03:49:39
362 1593 FORGUES JEAN-PIERRE MC 130   03:24:41 27,26 357 03:49:40
363 1714 DUMON PATRICIA FW3 1 CO CARNON 03:24:41 27,26 6 03:49:40
364 1221 SIFFRE JEAN MARIE MB 73 NEUTRE 03:24:42 27,26 358 03:49:41
365 1716 RODIER LUC MD 72 CO CARNON 03:24:48 27,24 359 03:49:47
366 1583 BOUSQUET PHILIPPE MC 131 MONTPELLIER AGGLO TRI 03:25:13 27,19 360 03:50:12
367 1346 DARDENNES CHRISTOPHE MB 74 VC TOUCY 03:25:26 27,16 361 03:50:25
368 1378 VALDIVIA JOSE MD 73   03:25:58 27,09 362 03:50:57
369 1520 MEDINA MANUEL ME 49 ASUC MIGENNES 03:26:48 26,98 363 03:51:48
370 1319 GARCIA LAURENT MB 75   03:26:49 26,98 364 03:51:49
371 1233 FIS JEAN GABRIEL MD 74   03:26:49 26,98 365 03:51:49
372 1318 NOEL PATRICK MB 76   03:26:50 26,98 366 03:51:49
373 1418 BESSIERE FRANCK MB 77 ASPH MONTPELLIER 03:26:50 26,98 367 03:51:49
374 1610 GIULIANI GILBERT ME 50   03:26:51 26,97 368 03:51:50
375 1206 ARQUES OLIVIER MC 132 AVC NIMES 03:27:08 26,94 369 03:52:07
376 1456 TESTANIER BRUNO MC 133 GAZELEC BEZIERS 03:29:01 26,69 370 03:54:01
377 1608 TOURRIERE WILLIAM MC 134   03:29:34 26,63 371 03:54:33
378 1436 SEBERT LUC MC 135   03:29:34 26,63 372 03:54:33
379 1493 PLATET JEAN MARC MC 136 VELO SPORT SAINT AFFRICAIN 03:29:34 26,63 373 03:54:33
380 1388 MORETTO PIERRE MC 137   03:29:34 26,62 374 03:54:33
381 1512 GERACI GAETAN MC 138 ELAN CYCLISTE BALARUCOIS 03:29:34 26,62 375 03:54:34
382 1309 FOUET JACQUES MD 75 AS FORMICA 03:29:35 26,62 376 03:54:34
383 1428 GASTAL RICHARD MC 139 VVC ST MATHIEU DE TREVIERS 03:29:40 26,61 377 03:54:39
384 1417 CAJETTA DIDIER MD 76 VCLL PEZENAS 03:29:43 26,61 378 03:54:42
385 1239 FAVEREAU GÉRARD MD 77 RANDO LOISIRS BRAIMOIS 03:29:49 26,59 379 03:54:48
386 1447 LLOPIS JOSE MC 140 ALARIC CYCLO CLUB 03:29:50 26,59 380 03:54:49
387 1448 PASTOR CYRIL MC 141 ALARIC CYCLO CLUB 03:29:51 26,59 381 03:54:50
388 1652 MAREC PATRICK MD 78   03:29:53 26,59 382 03:54:52
389 1257 DAGORNE JEAN PAUL ME 51   03:29:54 26,58 383 03:54:53
390 1462 BARRACO ANTOINE MD 79   03:29:54 26,58 384 03:54:53
391 1615 TRABAUD OLIVIER MC 142 CC SALONAIS 03:30:05 26,56 385 03:55:04
392 1454 SALEIL BENOIT MB 78 LA FLECHE DU MIDI 03:30:09 26,55 386 03:55:08
393 1639 VEA JEAN MD 80   03:30:12 26,55 387 03:55:11
394 1400 GOUTAL JULIEN MA 35 SUD VELO EN JETEZ PLUS 03:30:34 26,50 388 03:55:33
395 1453 TORRO JEAN CLAUDE MD 81   03:30:41 26,48 389 03:55:40
396 1668 CHABBERT NATHALIE FW2 3   03:31:03 26,44 7 03:56:02
397 1263 CLOAREC JOEL MD 82 VC GOUZON 03:31:11 26,42 390 03:56:10
398 1705 RICHARD ALBERT ME 52 ROUE LIBRE GIGNACOISE 03:32:08 26,30 391 03:57:07
399 1558 PANTEL LAURENT MC 143 CAVEIRAC VC 03:33:44 26,11 392 03:58:43
400 1441 CARREAUD FRANCIS MD 83 CAVEIRAC VC 03:33:46 26,10 393 03:58:45
401 1244 GIBOUT ROBERT ME 53 CC PYRÉNÉEN 03:33:48 26,10 394 03:58:47
402 1549 BRIOT YVES MC 144 CAVEIRAC VC 03:33:51 26,09 395 03:58:50
403 1312 FIGEAC ERIC MC 145 AC CLAPIERS 03:34:13 26,05 396 03:59:12
404 1361 DAUMOND JEAN CLAUDE ME 54 VC MAUGUIO 03:34:17 26,04 397 03:59:16
405 1210 RACCAGNI STEFANO MC 147 ASC CARCASSONNE 03:35:05 25,94 398 04:00:05
406 1545 GALABRUN ANDRE ME 55 LUNEL VELO PASSION 03:35:10 25,93 399 04:00:09
407 1573 WOULFE MAURICE MD 84 VC VEDASIEN 03:35:13 25,93 400 04:00:12
408 1261 LANDIER ANDRÉ ME 56 CLUB NEUTRE LR 03:35:42 25,87 401 04:00:41
409 1596 DEFEZ AUGUSTE MD 85   03:35:48 25,86 402 04:00:47
410 1305 RASO REINE FW3 2 CAVIGNAC CLUB NORD GIRONDE 03:35:50 25,85 8 04:00:49
411 1451 CAMUZAT PASCAL MD 86   03:35:56 25,84 403 04:00:55
412 1332 ARRIBAS SOCRATE MD 87 CYCLO CLUB BÉDARIEUX 03:35:57 25,84 404 04:00:57
413 1643 HILAK AIMÉE FW2 4 MONTAGNAC AC 03:36:56 25,72 9 04:01:55
414 1246 CADAS SERGE MC 148 COMITE QUARTIER LA RENAUDIE 03:36:57 25,72 405 04:01:56
415 1437 SOLA CAMILLE MA 36 ROUE LIBRE GIGNACOISE 03:37:40 25,63 406 04:02:39
416 1565 TOMAS ALAIN ME 57   03:37:42 25,63 407 04:02:41
417 1321 DESSANT FRANÇOIS MD 88   03:38:12 25,57 408 04:03:11
418 1586 VIDAL FRANCK MB 79   03:38:14 25,57 409 04:03:13
419 1731 RAMDANI MALIKA FW1 4 ALBI VELO SPORT 03:38:16 25,56 10 04:03:15
420 1264 HALLEY SYLVETTE FW3 3 VCV VAILHAUQUES 03:39:54 25,37 11 04:04:53
421 1473 LOMBARD THIERRY MD 89 ASC COMBAILLAUX 03:40:01 25,36 410 04:05:00
422 1348 BARBIN JEAN MARC MD 90 ASC COMBAILLAUX 03:40:01 25,36 411 04:05:00
423 1306 ASTRUC ERIC MC 149   03:40:39 25,29 412 04:05:38
424 1251 CALOC'H YANN MB 80   03:40:42 25,28 413 04:05:41
425 1533 GERNIGNON CHRISTOPHE MC 150 VVC ST MATHIEU DE TREVIERS 03:40:52 25,26 414 04:05:51
426 1329 MONTEILS ROGER ME 58   03:41:22 25,21 415 04:06:21
427 1739 FOUQUET GERARD MD 91 PEZENAS VCLL 03:41:48 25,16 416 04:06:47
428 1571 ETIENNE GUY MD 92 VELO CLUB AIGUE MORTAIS 03:41:48 25,16 417 04:06:48
429 1497 TOUZERY BERTRAND MD 93   03:41:49 25,15 418 04:06:48
430 1552 METAIS PASCALE FW1 5 MOUSQUETAIRES PRADEENS 03:41:59 25,14 12 04:06:58
431 1272 VIDAMO PATRICK MD 94 CYCLO LAURAGAIS CASTELNAUDARY 03:42:00 25,13 419 04:06:59
432 1720 GALLAIRE ANDRE ME 59   03:44:04 24,90 420 04:09:03
433 1389 MILAN THIERRY MC 151   03:44:04 24,90 421 04:09:04
434 1399 DEVLAMYNCK EMMANUEL MB 81 SUD VELO EN JETEZ PLUS 03:44:07 24,90 422 04:09:06
435 1235 COBOS MAX MC 152   03:44:07 24,90 423 04:09:06
436 1291 QUEFELEC JEAN ME 60 VVC ST MATHIEU DE TREVIERS 03:44:09 24,89 424 04:09:08
437 1271 PAULET JEAN PIERRE MD 95   03:44:19 24,88 425 04:09:18
438 1628 DIDES JEAN JACQUES MD 96 VCLL PEZENAS 03:45:24 24,76 426 04:10:23
439 1364 BESSORA ERIC MD 97   03:46:41 24,62 427 04:11:40
440 1242 BEAUMONT LAURENCE FW2 5 TEYRAN BIKE 34 03:47:11 24,56 13 04:12:10
441 1634 TOLMOS JEAN CLAUDE ME 61 TEYRAN BIKE 34 03:47:11 24,56 428 04:12:10
442 1647 CAUJOLLE THIERRY ME 62   03:47:15 24,55 429 04:12:14
443 1728 BARTHELEMY DIDIER MC 153 ROUE LIBRE GIGNACOISE 03:47:27 24,53 430 04:12:27
444 1395 AFFRE PHILIPPE MC 154 VTT ROC EVASION 03:47:28 24,53 431 04:12:27
445 1385 ROQUES DAVID MB 82   03:47:29 24,53 432 04:12:28
446 1616 FARRAS SERGE MC 155   03:47:29 24,53 433 04:12:28
447 1404 DOURDET CARINE FW1 6 SUD VELO EN JETEZ PLUS 03:47:29 24,53 14 04:12:28
448 1225 COSTEMALE JULIEN MB 83   03:48:45 24,39 434 04:13:44
449 1215 PUCHOIS STEPHANE MD 98   03:48:46 24,39 435 04:13:45
450 1379 BERRUS ERIC MC 156   03:49:19 24,33 436 04:14:18
451 1380 BERRUS CORALIE FW2 6   03:49:21 24,33 15 04:14:21
452 1597 DIAZ FABRICE MB 84 ROUE LIBRE GIGNACOISE 03:51:22 24,12 437 04:16:21
453 1226 LABONNE JULIEN MA 37   03:52:44 23,98 438 04:17:43
454 1496 MASSOT ARMAND ME 63 CSC LA CIOTAT 03:53:27 23,90 439 04:18:27
455 1480 COULANGE BERNARD ME 64 CYCLO CLUB CIOTADEN 03:53:28 23,90 440 04:18:27
456 1630 DARNAUD ANDRÉ ME 65 RHONES ALPES CYCLISME 03:53:29 23,90 441 04:18:29
457 1501 VIANA JACQUES MD 99   03:53:42 23,88 442 04:18:41
458 1645 VLAEMYNCK CAROLE FW3 4 EC ANDUZE 03:53:46 23,87 16 04:18:45
459 1208 WEBERT JEAN FRANÇOIS MD 100 CSC CIOTADEN 03:54:50 23,76 443 04:19:49
460 1523 MIGUEL ADOLPHE MD 101   03:55:01 23,74 444 04:20:00
461 1723 WEBERT BRIGITTE FW3 5 CYCLO CLUB CIOTADEN 03:55:46 23,67 17 04:20:45
462 1324 STEPHENSON ANPY MC 157   03:56:35 23,58 445 04:21:34
463 1452 KLEIN GERARD ME 66   03:56:38 23,58 446 04:21:37
464 1721 PONS MICHEL MD 102   03:56:40 23,58 447 04:21:39
465 1684 GOUIN JEAN-PHILIPPE MD 103   03:57:22 23,51 448 04:22:21
466 1338 BORDENAVE SYLVAIN MB 85   03:57:28 23,50 449 04:22:28
467 1509 TRAPE THIERRY MC 158   03:58:21 23,41 450 04:23:20
468 1534 JACQUART CHRISTOPHE MC 159 ARIEGE PYR 03:58:21 23,41 451 04:23:20
469 1717 JUNIUS FABIEN MB 86   03:58:32 23,39 452 04:23:31
470 1245 AUDIBERT MARIE PIERRE FW1 7 ASCC 04:01:55 23,06 18 04:26:54
471 1258 ANDRIEUX CHRISTIAN ME 67 CLUB NEUTRE LR 04:01:56 23,06 453 04:26:55
472 1536 FORESTIER DIDIER MD 104   04:02:00 23,06 454 04:26:59
473 1516 BALESTER BRICE MB 87 ELAN CYCLISTE BALARUCOIS 04:03:19 22,93 455 04:28:18
474 1487 BERGEROT CELINE FW1 8 VO2 TRIATHLON 04:03:47 22,89 19 04:28:46
475 1297 CHAUVIN LOIC MB 88 VC VEDASIEN 04:12:09 22,13 456 04:37:08
476 1298 BAURENS NATHALIE FW2 7   04:12:09 22,13 20 04:37:08
477 1450 REGAZZONI ERIC MC 160   04:13:10 22,04 457 04:38:09
478 1481 CAUSSE VERONIQUE FW2 8   04:16:44 21,73 21 04:41:43
479 1398 COLLET GWENAELLE FW2 9 SUD VELO EN JETEZ PLUS 04:16:44 21,73 22 04:41:43
480 1320 GAREL DIDIER MD 105   04:17:12 21,70 458 04:42:11
481 1554 CHABALIER JEAN PAUL MD 106   04:17:39 21,66 459 04:42:38
482 1288 CAUMES MICHEL ME 68 ROUE LIBRE GIGNACOISE 04:25:11 21,04 460 04:50:10
483 1396 CHAPEL CLAUDINE FW3 6 SUD VELO EN JETEZ PLUS 04:26:28 20,94 23 04:51:27
484 1407 GUILLOBEZ BERNADETTE FW3 7 SUD VELO EN JETEZ PLUS 04:26:44 20,92 24 04:51:43
485 1408 GUILLOBEZ SERGE ME 69 SUD VELO EN JETEZ PLUS 04:26:54 20,91 461 04:51:53